createdAt,value
2023-04-18T00:01:31.885Z,100207.38
2023-04-18T00:03:58.687Z,100196.09
2023-04-18T00:06:25.963Z,100202.78
2023-04-18T00:08:52.644Z,100205.16
2023-04-18T00:11:19.281Z,100201.84
2023-04-18T00:13:47.419Z,100200.28
2023-04-18T00:16:14.700Z,100208.06
2023-04-18T00:18:41.380Z,100204.22
2023-04-18T00:21:08.732Z,100207.50
2023-04-18T00:23:36.025Z,100206.81
2023-04-18T00:26:03.111Z,100204.44
2023-04-18T00:28:29.748Z,100199.25
2023-04-18T00:30:56.613Z,100197.13
2023-04-18T00:33:23.264Z,100195.06
2023-04-18T00:35:52.053Z,100196.88
2023-04-18T00:38:18.616Z,100198.78
2023-04-18T00:40:47.800Z,100201.16
2023-04-18T00:43:14.682Z,100198.31
2023-04-18T00:45:41.351Z,100198.78
2023-04-18T00:48:09.104Z,100201.72
2023-04-18T00:50:37.516Z,100202.41
2023-04-18T00:53:04.661Z,100202.09
2023-04-18T00:55:31.622Z,100197.44
2023-04-18T00:57:58.611Z,100203.44
2023-04-18T01:00:25.793Z,100197.75
2023-04-18T01:02:55.697Z,100194.84
2023-04-18T01:05:23.280Z,100191.69
2023-04-18T01:07:50.035Z,100196.31
2023-04-18T01:10:16.705Z,100203.19
2023-04-18T01:12:43.381Z,100194.94
2023-04-18T01:15:10.293Z,100189.63
2023-04-18T01:17:38.463Z,100188.63
2023-04-18T01:20:06.355Z,100194.59
2023-04-18T01:22:33.719Z,100190.44
2023-04-18T01:25:00.550Z,100193.25
2023-04-18T01:27:27.200Z,100194.28
2023-04-18T01:29:53.837Z,100190.66
2023-04-18T01:32:22.550Z,100189.41
2023-04-18T01:34:49.332Z,100181.28
2023-04-18T01:37:15.925Z,100187.19
2023-04-18T01:39:42.485Z,100185.50
2023-04-18T01:42:09.085Z,100187.09
2023-04-18T01:44:37.231Z,100177.47
2023-04-18T01:47:05.086Z,100181.00
2023-04-18T01:49:32.686Z,100178.50
2023-04-18T01:51:59.241Z,100178.97
2023-04-18T01:54:25.811Z,100189.03
2023-04-18T01:56:52.516Z,100178.63
2023-04-18T01:59:19.133Z,100194.22
2023-04-18T02:01:46.154Z,100178.88
2023-04-18T02:04:13.342Z,100190.06
2023-04-18T02:06:40.303Z,100187.59
2023-04-18T02:09:06.889Z,100193.81
2023-04-18T02:11:33.532Z,100183.88
2023-04-18T02:14:02.822Z,100184.91
2023-04-18T02:16:29.515Z,100181.50
2023-04-18T02:18:56.525Z,100181.28
2023-04-18T02:21:23.202Z,100181.13
2023-04-18T02:23:49.828Z,100181.28
2023-04-18T02:26:16.457Z,100187.94
2023-04-18T02:28:43.067Z,100189.66
2023-04-18T02:31:14.722Z,100185.72
2023-04-18T02:33:47.205Z,100189.44
2023-04-18T02:36:13.914Z,100190.00
2023-04-18T02:38:42.222Z,100186.25
2023-04-18T02:41:08.911Z,100179.22
2023-04-18T02:43:35.555Z,100180.59
2023-04-18T02:46:03.014Z,100181.84
2023-04-18T02:48:29.672Z,100180.50
2023-04-18T02:51:04.962Z,100182.84
2023-04-18T02:53:34.979Z,100186.59
2023-04-18T02:56:02.546Z,100183.13
2023-04-18T02:58:49.804Z,100180.06
2023-04-18T03:01:48.704Z,100192.72
2023-04-18T03:04:18.485Z,100188.53
2023-04-18T03:06:56.039Z,100191.69
2023-04-18T03:09:22.602Z,100195.78
2023-04-18T03:11:54.776Z,100186.97
2023-04-18T03:14:25.377Z,100188.31
2023-04-18T03:16:55.513Z,100190.91
2023-04-18T03:19:26.580Z,100194.66
2023-04-18T03:21:54.949Z,100194.78
2023-04-18T03:24:22.182Z,100195.00
2023-04-18T03:26:51.664Z,100194.78
2023-04-18T03:29:21.412Z,100202.47
2023-04-18T03:31:48.110Z,100199.06
2023-04-18T03:34:15.178Z,100202.56
2023-04-18T03:36:42.122Z,100198.94
2023-04-18T03:39:10.897Z,100197.81
2023-04-18T03:41:37.670Z,100201.78
2023-04-18T03:44:04.692Z,100197.63
2023-04-18T03:46:35.407Z,100196.00
2023-04-18T03:49:02.848Z,100195.66
2023-04-18T03:51:34.457Z,100195.88
2023-04-18T03:54:01.585Z,100189.34
2023-04-18T03:56:28.395Z,100196.13
2023-04-18T03:58:55.576Z,100198.72
2023-04-18T04:01:22.674Z,100209.00
2023-04-18T04:03:51.608Z,100204.34
2023-04-18T04:06:18.773Z,100206.06
2023-04-18T04:08:45.455Z,100206.84
2023-04-18T04:11:12.677Z,100204.25
2023-04-18T04:13:39.398Z,100208.44
2023-04-18T04:16:07.098Z,100212.38
2023-04-18T04:18:33.949Z,100216.31
2023-04-18T04:21:03.497Z,100214.63
2023-04-18T04:23:46.178Z,100221.97
2023-04-18T04:26:23.463Z,100222.31
2023-04-18T04:29:02.181Z,100215.41
2023-04-18T04:31:28.984Z,100226.16
2023-04-18T04:33:57.250Z,100224.69
2023-04-18T04:36:27.089Z,100224.91
2023-04-18T04:38:55.102Z,100224.91
2023-04-18T04:41:31.575Z,100230.75
2023-04-18T04:43:59.558Z,100233.03
2023-04-18T04:46:30.678Z,100237.66
2023-04-18T04:48:59.075Z,100236.84
2023-04-18T04:51:27.954Z,100243.97
2023-04-18T04:53:54.778Z,100242.50
2023-04-18T04:56:23.673Z,100246.47
2023-04-18T04:58:50.511Z,100248.72
2023-04-18T05:01:24.039Z,100251.31
2023-04-18T05:03:52.510Z,100248.25
2023-04-18T05:06:20.793Z,100246.22
2023-04-18T05:08:48.237Z,100252.88
2023-04-18T05:11:15.712Z,100250.50
2023-04-18T05:13:42.656Z,100256.69
2023-04-18T05:16:09.529Z,100257.72
2023-04-18T05:18:41.029Z,100258.72
2023-04-18T05:21:07.817Z,100259.97
2023-04-18T05:23:37.433Z,100255.69
2023-04-18T05:26:05.455Z,100261.34
2023-04-18T05:28:32.596Z,100261.81
2023-04-18T05:31:02.103Z,100262.13
2023-04-18T05:33:32.098Z,100267.44
2023-04-18T05:35:59.144Z,100263.81
2023-04-18T05:38:25.978Z,100263.25
2023-04-18T05:40:55.369Z,100267.88
2023-04-18T05:43:22.262Z,100265.06
2023-04-18T05:45:49.023Z,100274.09
2023-04-18T05:48:15.679Z,100270.59
2023-04-18T05:50:42.314Z,100284.59
2023-04-18T05:53:08.978Z,100275.53
2023-04-18T05:55:35.784Z,100277.22
2023-04-18T05:58:02.474Z,100272.25
2023-04-18T06:00:31.497Z,100265.34
2023-04-18T06:02:58.224Z,100276.97
2023-04-18T06:05:25.082Z,100271.56
2023-04-18T06:07:51.857Z,100279.25
2023-04-18T06:10:19.015Z,100281.53
2023-04-18T06:12:45.697Z,100281.97
2023-04-18T06:15:12.909Z,100282.78
2023-04-18T06:17:39.781Z,100274.22
2023-04-18T06:20:07.044Z,100284.47
2023-04-18T06:22:36.681Z,100285.84
2023-04-18T06:25:03.597Z,100290.13
2023-04-18T06:27:31.946Z,100288.31
2023-04-18T06:29:58.857Z,100293.28
2023-04-18T06:32:26.148Z,100293.84
2023-04-18T06:34:53.086Z,100301.41
2023-04-18T06:37:20.173Z,100300.06
2023-04-18T06:39:47.100Z,100301.19
2023-04-18T06:42:13.785Z,100302.66
2023-04-18T06:44:44.398Z,100303.34
2023-04-18T06:47:11.240Z,100302.00
2023-04-18T06:49:37.819Z,100295.34
2023-04-18T06:52:04.435Z,100303.84
2023-04-18T06:54:31.023Z,100304.97
2023-04-18T06:56:57.720Z,100308.88
2023-04-18T06:59:24.382Z,100300.97
2023-04-18T07:01:51.329Z,100294.78
2023-04-18T07:04:18.194Z,100300.88
2023-04-18T07:06:45.270Z,100294.88
2023-04-18T07:09:11.860Z,100298.25
2023-04-18T07:11:40.829Z,100306.16
2023-04-18T07:14:07.527Z,100306.59
2023-04-18T07:16:34.749Z,100304.56
2023-04-18T07:19:01.477Z,100303.53
2023-04-18T07:21:28.465Z,100305.13
2023-04-18T07:23:55.357Z,100313.50
2023-04-18T07:26:22.106Z,100311.25
2023-04-18T07:28:49.468Z,100312.38
2023-04-18T07:31:16.564Z,100319.84
2023-04-18T07:33:43.823Z,100323.59
2023-04-18T07:36:10.859Z,100316.72
2023-04-18T07:38:38.032Z,100328.69
2023-04-18T07:41:05.033Z,100327.09
2023-04-18T07:43:34.482Z,100316.03
2023-04-18T07:46:01.118Z,100313.44
2023-04-18T07:48:28.442Z,100310.63
2023-04-18T07:50:55.159Z,100316.59
2023-04-18T07:53:21.799Z,100313.22
2023-04-18T07:55:48.457Z,100316.38
2023-04-18T07:58:15.051Z,100317.75
2023-04-18T08:00:43.907Z,100320.47
2023-04-18T08:03:12.143Z,100316.41
2023-04-18T08:05:40.231Z,100314.16
2023-04-18T08:08:08.370Z,100313.81
2023-04-18T08:10:36.590Z,100319.69
2023-04-18T08:13:04.028Z,100321.94
2023-04-18T08:15:32.605Z,100318.22
2023-04-18T08:18:00.880Z,100311.09
2023-04-18T08:20:27.797Z,100312.34
2023-04-18T08:23:05.610Z,100319.56
2023-04-18T08:25:33.723Z,100311.78
2023-04-18T08:28:00.400Z,100323.84
2023-04-18T08:30:27.172Z,100315.59
2023-04-18T08:32:53.976Z,100321.25
2023-04-18T08:35:20.762Z,100322.59
2023-04-18T08:37:47.424Z,100323.50
2023-04-18T08:40:14.055Z,100321.25
2023-04-18T08:42:44.616Z,100323.41
2023-04-18T08:45:14.187Z,100315.59
2023-04-18T08:47:41.646Z,100318.66
2023-04-18T08:50:10.012Z,100322.72
2023-04-18T08:52:39.338Z,100327.88
2023-04-18T08:55:07.386Z,100333.72
2023-04-18T08:57:35.751Z,100330.75
2023-04-18T09:00:04.466Z,100327.94
2023-04-18T09:02:43.615Z,100331.72
2023-04-18T09:05:13.024Z,100327.78
2023-04-18T09:07:40.679Z,100329.13
2023-04-18T09:10:07.935Z,100336.00
2023-04-18T09:12:42.654Z,100336.56
2023-04-18T09:15:11.205Z,100327.03
2023-04-18T09:17:45.984Z,100340.75
2023-04-18T09:20:15.677Z,100336.91
2023-04-18T09:22:45.956Z,100329.59
2023-04-18T09:25:24.812Z,100330.75
2023-04-18T09:27:52.443Z,100330.97
2023-04-18T09:30:39.865Z,100325.78
2023-04-18T09:33:10.183Z,100331.09
2023-04-18T09:35:37.965Z,100334.59
2023-04-18T09:38:05.885Z,100331.66
2023-04-18T09:40:33.034Z,100335.16
2023-04-18T09:43:00.602Z,100333.03
2023-04-18T09:45:27.301Z,100329.19
2023-04-18T09:47:54.283Z,100335.63
2023-04-18T09:50:21.293Z,100332.44
2023-04-18T09:52:48.427Z,100333.66
2023-04-18T09:55:17.461Z,100333.56
2023-04-18T09:57:47.098Z,100338.41
2023-04-18T10:00:24.867Z,100335.47
2023-04-18T10:02:53.414Z,100331.63
2023-04-18T10:05:24.031Z,100334.53
2023-04-18T10:07:53.470Z,100340.75
2023-04-18T10:10:20.517Z,100340.75
2023-04-18T10:12:48.788Z,100342.88
2023-04-18T10:15:16.868Z,100347.84
2023-04-18T10:20:32.394Z,100334.22
2023-04-18T10:22:59.952Z,100336.47
2023-04-18T10:25:38.649Z,100329.13
2023-04-18T10:28:09.769Z,100331.16
2023-04-18T10:30:42.178Z,100342.00
2023-04-18T10:33:31.059Z,100343.22
2023-04-18T10:36:22.333Z,100340.88
2023-04-18T10:38:49.545Z,100335.66
2023-04-18T10:41:23.445Z,100336.59
2023-04-18T10:44:08.967Z,100330.59
2023-04-18T10:46:37.037Z,100334.19
2023-04-18T10:49:16.949Z,100331.22
2023-04-18T10:51:58.569Z,100339.25
2023-04-18T10:54:37.709Z,100331.47
2023-04-18T10:57:07.514Z,100329.88
2023-04-18T10:59:39.479Z,100325.78
2023-04-18T11:02:24.204Z,100326.78
2023-04-18T11:04:52.550Z,100326.88
2023-04-18T11:07:19.707Z,100330.03
2023-04-18T11:09:57.246Z,100329.09
2023-04-18T11:12:23.884Z,100328.41
2023-04-18T11:14:52.200Z,100329.19
2023-04-18T11:17:23.840Z,100343.00
2023-04-18T11:19:59.024Z,100333.59
2023-04-18T11:22:25.885Z,100335.66
2023-04-18T11:24:57.219Z,100339.50
2023-04-18T11:27:25.733Z,100329.03
2023-04-18T11:29:54.124Z,100332.44
2023-04-18T11:32:23.202Z,100332.44
2023-04-18T11:34:55.193Z,100330.84
2023-04-18T11:37:22.489Z,100327.78
2023-04-18T11:39:54.488Z,100327.06
2023-04-18T11:42:32.150Z,100328.97
2023-04-18T11:44:58.768Z,100341.66
2023-04-18T11:47:27.599Z,100336.84
2023-04-18T11:50:02.764Z,100340.78
2023-04-18T11:52:31.382Z,100344.09
2023-04-18T11:55:25.009Z,100343.31
2023-04-18T11:57:55.554Z,100338.56
2023-04-18T12:00:34.293Z,100338.09
2023-04-18T12:03:04.646Z,100342.84
2023-04-18T12:05:33.992Z,100340.31
2023-04-18T12:08:06.785Z,100345.84
2023-04-18T12:10:33.552Z,100345.53
2023-04-18T12:13:00.343Z,100342.47
2023-04-18T12:15:29.133Z,100345.63
2023-04-18T12:18:04.781Z,100344.50
2023-04-18T12:20:51.513Z,100341.59
2023-04-18T12:23:38.941Z,100332.59
2023-04-18T12:26:13.611Z,100335.66
2023-04-18T12:28:45.018Z,100337.72
2023-04-18T12:31:11.880Z,100329.69
2023-04-18T12:33:38.515Z,100333.84
2023-04-18T12:36:06.036Z,100340.19
2023-04-18T12:38:32.656Z,100336.78
2023-04-18T12:40:59.258Z,100333.72
2023-04-18T12:43:25.897Z,100335.47
2023-04-18T12:45:52.571Z,100327.72
2023-04-18T12:48:19.232Z,100327.81
2023-04-18T12:50:45.885Z,100333.03
2023-04-18T12:53:12.474Z,100336.09
2023-04-18T12:55:39.103Z,100336.25
2023-04-18T12:58:05.697Z,100334.75
2023-04-18T13:00:32.938Z,100330.09
2023-04-18T13:03:00.169Z,100326.47
2023-04-18T13:05:32.457Z,100323.63
2023-04-18T13:08:12.808Z,100327.50
2023-04-18T13:10:42.549Z,100330.66
2023-04-18T13:13:09.154Z,100333.72
2023-04-18T13:15:36.223Z,100324.66
2023-04-18T13:18:06.177Z,100328.59
2023-04-18T13:20:34.376Z,100327.25
2023-04-18T13:23:03.031Z,100332.84
2023-04-18T13:25:29.665Z,100334.13
2023-04-18T13:27:58.303Z,100334.81
2023-04-18T13:30:24.983Z,100327.09
2023-04-18T13:32:51.751Z,100328.44
2023-04-18T13:35:18.535Z,100327.41
2023-04-18T13:37:46.981Z,100334.44
2023-04-18T13:40:13.698Z,100333.66
2023-04-18T13:42:41.502Z,100332.06
2023-04-18T13:45:08.323Z,100328.13
2023-04-18T13:47:35.084Z,100325.28
2023-04-18T13:50:01.895Z,100323.94
2023-04-18T13:52:28.569Z,100326.06
2023-04-18T13:54:55.341Z,100328.66
2023-04-18T13:57:23.042Z,100321.81
2023-04-18T13:59:49.702Z,100327.34
2023-04-18T14:02:16.558Z,100314.09
2023-04-18T14:04:43.419Z,100326.16
2023-04-18T14:07:10.007Z,100324.56
2023-04-18T14:09:38.372Z,100321.88
2023-04-18T14:12:05.659Z,100330.03
2023-04-18T14:14:32.257Z,100329.72
2023-04-18T14:16:58.914Z,100328.69
2023-04-18T14:19:27.076Z,100329.31
2023-04-18T14:21:53.682Z,100330.09
2023-04-18T14:24:20.376Z,100332.94
2023-04-18T14:26:47.882Z,100328.59
2023-04-18T14:29:15.088Z,100332.31
2023-04-18T14:31:42.066Z,100333.09
2023-04-18T14:34:09.589Z,100330.16
2023-04-18T14:36:36.491Z,100331.91
2023-04-18T14:39:04.670Z,100333.97
2023-04-18T14:41:31.341Z,100326.69
2023-04-18T14:43:58.016Z,100327.97
2023-04-18T14:46:27.125Z,100316.75
2023-04-18T14:48:54.306Z,100316.50
2023-04-18T14:51:21.033Z,100323.00
2023-04-18T14:53:47.626Z,100311.63
2023-04-18T14:56:15.834Z,100316.22
2023-04-18T14:58:42.884Z,100316.13
2023-04-18T15:01:09.605Z,100321.81
2023-04-18T15:03:36.381Z,100315.88
2023-04-18T15:06:03.097Z,100317.16
2023-04-18T15:08:32.685Z,100323.94
2023-04-18T15:10:59.623Z,100315.25
2023-04-18T15:13:26.312Z,100313.69
2023-04-18T15:15:54.082Z,100312.66
2023-04-18T15:18:21.158Z,100311.63
2023-04-18T15:20:47.777Z,100324.09
2023-04-18T15:23:14.804Z,100322.06
2023-04-18T15:25:42.284Z,100320.47
2023-04-18T15:28:08.987Z,100318.81
2023-04-18T15:30:36.273Z,100314.31
2023-04-18T15:33:02.920Z,100314.31
2023-04-18T15:35:29.587Z,100312.25
2023-04-18T15:37:57.629Z,100309.44
2023-04-18T15:40:24.342Z,100308.88
2023-04-18T15:42:53.416Z,100309.91
2023-04-18T15:45:21.343Z,100314.47
2023-04-18T15:47:48.163Z,100318.97
2023-04-18T15:50:16.229Z,100315.56
2023-04-18T15:52:43.421Z,100313.44
2023-04-18T15:55:13.403Z,100314.78
2023-04-18T15:57:41.734Z,100316.44
2023-04-18T16:00:17.405Z,100318.72
2023-04-18T16:02:45.050Z,100318.72
2023-04-18T16:05:12.886Z,100320.72
2023-04-18T16:07:40.572Z,100315.75
2023-04-18T16:10:09.976Z,100307.69
2023-04-18T16:12:37.709Z,100320.22
2023-04-18T16:15:06.744Z,100321.88
2023-04-18T16:17:34.572Z,100319.59
2023-04-18T16:20:01.266Z,100316.22
2023-04-18T16:22:27.973Z,100315.19
2023-04-18T16:24:54.627Z,100325.19
2023-04-18T16:27:21.293Z,100311.63
2023-04-18T16:29:47.932Z,100306.34
2023-04-18T16:32:14.545Z,100317.31
2023-04-18T16:34:41.369Z,100315.97
2023-04-18T16:37:08.653Z,100316.22
2023-04-18T16:39:35.289Z,100305.78
2023-04-18T16:42:03.475Z,100310.28
2023-04-18T16:44:30.682Z,100302.22
2023-04-18T16:46:57.343Z,100300.97
2023-04-18T16:49:24.213Z,100307.97
2023-04-18T16:51:51.019Z,100300.16
2023-04-18T16:54:17.845Z,100315.00
2023-04-18T16:56:44.817Z,100307.66
2023-04-18T16:59:11.488Z,100315.19
2023-04-18T17:01:38.332Z,100320.88
2023-04-18T17:04:05.631Z,100319.84
2023-04-18T17:06:32.649Z,100322.28
2023-04-18T17:08:59.364Z,100319.59
2023-04-18T17:11:26.578Z,100321.88
2023-04-18T17:13:53.375Z,100312.97
2023-04-18T17:16:20.132Z,100315.56
2023-04-18T17:18:46.824Z,100319.75
2023-04-18T17:21:13.550Z,100321.34
2023-04-18T17:23:42.228Z,100325.22
2023-04-18T17:26:09.891Z,100326.56
2023-04-18T17:28:36.571Z,100327.88
2023-04-18T17:31:03.726Z,100327.66
2023-04-18T17:33:31.603Z,100323.00
2023-04-18T17:35:58.659Z,100327.72
2023-04-18T17:38:25.581Z,100332.94
2023-04-18T17:41:02.407Z,100327.41
2023-04-18T17:43:29.443Z,100327.97
2023-04-18T17:46:00.091Z,100328.53
2023-04-18T17:48:26.686Z,100325.13
2023-04-18T17:50:53.294Z,100320.69
2023-04-18T17:53:19.908Z,100323.06
2023-04-18T17:55:48.861Z,100315.81
2023-04-18T17:58:17.519Z,100317.84
2023-04-18T18:00:45.006Z,100324.09
2023-04-18T18:03:16.000Z,100314.69
2023-04-18T18:05:46.490Z,100328.53
2023-04-18T18:08:14.335Z,100318.34
2023-04-18T18:10:41.307Z,100321.19
2023-04-18T18:13:08.019Z,100320.94
2023-04-18T18:15:35.915Z,100317.84
2023-04-18T18:18:02.608Z,100332.22
2023-04-18T18:20:29.402Z,100327.81
2023-04-18T18:22:57.199Z,100330.41
2023-04-18T18:25:23.794Z,100331.75
2023-04-18T18:27:51.426Z,100331.75
2023-04-18T18:30:18.858Z,100332.31
2023-04-18T18:32:45.529Z,100320.59
2023-04-18T18:35:12.508Z,100324.00
2023-04-18T18:37:39.092Z,100326.38
2023-04-18T18:40:06.565Z,100326.38
2023-04-18T18:42:33.142Z,100338.84
2023-04-18T18:45:01.386Z,100337.75
2023-04-18T18:47:30.573Z,100338.47
2023-04-18T18:49:58.103Z,100342.09
2023-04-18T18:52:25.187Z,100338.47
2023-04-18T18:54:52.961Z,100345.31
2023-04-18T18:57:19.487Z,100351.03
2023-04-18T18:59:46.209Z,100340.28
2023-04-18T19:02:14.611Z,100347.22
2023-04-18T19:04:42.240Z,100341.22
2023-04-18T19:07:08.950Z,100341.00
2023-04-18T19:09:36.849Z,100345.72
2023-04-18T19:12:06.890Z,100347.31
2023-04-18T19:14:34.428Z,100340.53
2023-04-18T19:17:01.718Z,100348.34
2023-04-18T19:19:28.370Z,100343.38
2023-04-18T19:21:54.993Z,100350.88
2023-04-18T19:24:21.843Z,100341.22
2023-04-18T19:26:48.404Z,100344.88
2023-04-18T19:29:15.546Z,100341.47
2023-04-18T19:31:43.540Z,100336.50
2023-04-18T19:34:11.762Z,100338.31
2023-04-18T19:36:38.437Z,100342.50
2023-04-18T19:39:05.015Z,100331.53
2023-04-18T19:41:31.569Z,100330.19
2023-04-18T19:43:58.205Z,100335.94
2023-04-18T19:46:24.796Z,100330.97
2023-04-18T19:48:52.521Z,100328.38
2023-04-18T19:51:19.141Z,100328.13
2023-04-18T19:53:45.760Z,100332.56
2023-04-18T19:56:14.189Z,100330.19
2023-04-18T19:58:46.549Z,100330.66
2023-04-18T20:01:14.516Z,100327.50
2023-04-18T20:03:42.532Z,100324.09
2023-04-18T20:06:09.984Z,100326.72
2023-04-18T20:08:38.110Z,100318.91
2023-04-18T20:11:07.758Z,100322.75
2023-04-18T20:13:36.586Z,100317.00
2023-04-18T20:16:08.739Z,100318.25
2023-04-18T20:18:41.201Z,100322.44
2023-04-18T20:21:09.184Z,100325.06
2023-04-18T20:23:36.710Z,100320.63
2023-04-18T20:26:04.372Z,100322.22
2023-04-18T20:28:31.859Z,100316.53
2023-04-18T20:30:58.958Z,100319.59
2023-04-18T20:33:26.047Z,100316.22
2023-04-18T20:35:54.633Z,100322.69
2023-04-18T20:38:25.873Z,100317.94
2023-04-18T20:40:54.182Z,100318.97
2023-04-18T20:43:21.373Z,100312.19
2023-04-18T20:45:50.840Z,100310.38
2023-04-18T20:48:18.153Z,100317.41
2023-04-18T20:50:50.833Z,100311.63
2023-04-18T20:53:21.848Z,100314.00
2023-04-18T20:55:48.876Z,100314.78
2023-04-18T20:58:15.704Z,100312.41
2023-04-18T21:00:43.693Z,100314.25
2023-04-18T21:03:14.777Z,100306.66
2023-04-18T21:05:43.483Z,100307.22
2023-04-18T21:08:13.082Z,100312.41
2023-04-18T21:10:39.804Z,100310.06
2023-04-18T21:13:06.789Z,100307.44
2023-04-18T21:15:35.223Z,100302.47
2023-04-18T21:18:02.006Z,100311.09
2023-04-18T21:20:28.711Z,100305.09
2023-04-18T21:22:55.317Z,100305.09
2023-04-18T21:25:21.981Z,100304.28
2023-04-18T21:27:50.660Z,100298.63
2023-04-18T21:30:17.741Z,100300.97
2023-04-18T21:32:44.491Z,100294.75
2023-04-18T21:35:11.523Z,100292.13
2023-04-18T21:37:38.084Z,100290.56
2023-04-18T21:40:05.250Z,100289.78
2023-04-18T21:42:31.886Z,100285.66
2023-04-18T21:44:58.469Z,100285.19
2023-04-18T21:47:25.882Z,100282.81
2023-04-18T21:49:52.560Z,100281.47
2023-04-18T21:52:19.170Z,100283.06
2023-04-18T21:54:45.870Z,100279.66
2023-04-18T21:57:12.445Z,100274.69
2023-04-18T21:59:39.084Z,100271.06
2023-04-18T22:02:05.736Z,100263.50
2023-04-18T22:04:33.859Z,100268.94
2023-04-18T22:07:00.627Z,100267.13
2023-04-18T22:09:27.252Z,100270.75
2023-04-18T22:11:56.703Z,100258.75
2023-04-18T22:14:24.812Z,100259.84
2023-04-18T22:16:51.599Z,100247.31
2023-04-18T22:19:19.250Z,100249.13
2023-04-18T22:21:46.213Z,100248.34
2023-04-18T22:24:13.035Z,100258.22
2023-04-18T22:26:40.767Z,100250.88
2023-04-18T22:29:07.404Z,100258.13
2023-04-18T22:31:34.051Z,100242.50
2023-04-18T22:34:00.707Z,100239.91
2023-04-18T22:36:27.709Z,100240.44
2023-04-18T22:38:54.417Z,100237.31
2023-04-18T22:41:20.981Z,100230.50
2023-04-18T22:43:47.618Z,100235.97
2023-04-18T22:46:14.293Z,100236.97
2023-04-18T22:48:40.923Z,100236.19
2023-04-18T22:51:07.760Z,100238.31
2023-04-18T22:53:34.338Z,100237.53
2023-04-18T22:56:00.958Z,100232.00
2023-04-18T22:58:27.592Z,100231.47
2023-04-18T23:00:54.270Z,100227.84
2023-04-18T23:11:48.449Z,100224.22
2023-04-18T23:15:08.864Z,100226.09
2023-04-18T23:17:35.698Z,100222.00
2023-04-18T23:20:02.386Z,100225.38
2023-04-18T23:22:29.063Z,100225.44
2023-04-18T23:24:55.657Z,100222.53
2023-04-18T23:27:22.251Z,100220.16
2023-04-18T23:29:49.047Z,100214.41
2023-04-18T23:32:15.980Z,100210.16
2023-04-18T23:34:42.590Z,100212.94
2023-04-18T23:37:12.018Z,100201.16
2023-04-18T23:39:38.683Z,100205.81
2023-04-18T23:42:05.411Z,100205.50
2023-04-18T23:44:32.049Z,100202.84
2023-04-18T23:46:58.917Z,100201.50
2023-04-18T23:49:27.528Z,100201.25
2023-04-18T23:51:54.184Z,100196.28
2023-04-18T23:54:20.834Z,100194.47
2023-04-18T23:56:47.385Z,100190.06
2023-04-18T23:59:13.979Z,100191.00
